Time,TemperatureF,DewpointF,PressureIn,WindDirection,WindDirectionDegrees,WindSpeedMPH,WindSpeedGustMPH,Humidity,HourlyPrecipIn,Conditions,Clouds,dailyrainin,SoftwareType,DateUTC
2013-06-18 00:04:00,72.3,68.2,30.00,North,0,0.0,0.0,87,0.00,CLR,BKN,0.00,WeatherDisplay:10.37,2013-06-17 22:04:00,
2013-06-18 00:09:00,72.1,68.1,30.00,North,0,0.0,0.0,87,0.00,CLR,BKN,0.00,WeatherDisplay:10.37,2013-06-17 22:09:00,
2013-06-18 00:14:00,72.0,67.9,30.00,North,0,0.0,0.0,87,0.00,CLR,BKN,0.00,WeatherDisplay:10.37,2013-06-17 22:14:00,
2013-06-18 00:19:00,71.4,67.7,30.00,North,0,0.0,0.0,88,0.00,CLR,BKN,0.00,WeatherDisplay:10.37,2013-06-17 22:19:00,
2013-06-18 00:24:00,71.2,67.5,30.00,North,0,0.0,0.0,88,0.00,CLR,BKN,0.00,WeatherDisplay:10.37,2013-06-17 22:24:00,
2013-06-18 00:29:00,70.9,67.1,30.00,North,0,0.0,0.0,88,0.00,CLR,BKN,0.00,WeatherDisplay:10.37,2013-06-17 22:29:00,
2013-06-18 00:34:00,70.9,67.5,30.00,North,0,0.0,0.0,89,0.00,CLR,BKN,0.00,WeatherDisplay:10.37,2013-06-17 22:34:00,
2013-06-18 00:39:00,70.9,67.5,30.00,North,0,0.0,0.0,89,0.00,CLR,BKN,0.00,WeatherDisplay:10.37,2013-06-17 22:39:00,
2013-06-18 00:44:00,70.7,67.3,30.00,North,0,0.0,0.0,89,0.00,CLR,BKN,0.00,WeatherDisplay:10.37,2013-06-17 22:44:00,
2013-06-18 00:49:00,70.5,67.1,30.00,North,0,0.0,0.0,89,0.00,CLR,BKN,0.00,WeatherDisplay:10.37,2013-06-17 22:49:00,
2013-06-18 00:54:00,70.3,67.3,30.00,North,0,0.0,0.0,90,0.00,CLR,BKN,0.00,WeatherDisplay:10.37,2013-06-17 22:54:00,
2013-06-18 00:59:00,70.2,67.1,30.00,North,0,0.0,0.0,90,0.00,CLR,BKN,0.00,WeatherDisplay:10.37,2013-06-17 22:59:00,
2013-06-18 01:04:00,70.2,67.1,30.00,North,0,0.0,0.0,90,0.00,CLR,BKN,0.00,WeatherDisplay:10.37,2013-06-17 23:04:00,
2013-06-18 01:09:00,70.0,66.9,30.00,North,0,0.0,0.0,90,0.00,CLR,BKN,0.00,WeatherDisplay:10.37,2013-06-17 23:09:00,
2013-06-18 01:14:00,69.8,66.7,30.00,North,0,0.0,0.0,90,0.00,CLR,BKN,0.00,WeatherDisplay:10.37,2013-06-17 23:14:00,
2013-06-18 01:19:00,69.8,66.7,30.00,North,0,0.0,0.0,90,0.00,CLR,BKN,0.00,WeatherDisplay:10.37,2013-06-17 23:19:00,
2013-06-18 01:24:00,69.8,66.7,30.00,North,0,0.0,0.0,90,0.00,CLR,BKN,0.00,WeatherDisplay:10.37,2013-06-17 23:24:00,
2013-06-18 01:29:00,69.6,66.9,30.00,North,0,0.0,0.0,91,0.00,CLR,BKN,0.00,WeatherDisplay:10.37,2013-06-17 23:29:00,
2013-06-18 01:34:00,69.4,67.0,30.00,North,0,0.0,0.0,92,0.00,CLR,BKN,0.00,WeatherDisplay:10.37,2013-06-17 23:34:00,
2013-06-18 01:39:00,69.4,67.0,30.00,North,0,0.0,0.0,92,0.00,CLR,BKN,0.00,WeatherDisplay:10.37,2013-06-17 23:39:00,
2013-06-18 01:44:00,69.3,66.8,30.00,North,0,0.0,0.0,92,0.00,CLR,BKN,0.00,WeatherDisplay:10.37,2013-06-17 23:44:00,
2013-06-18 01:49:00,69.3,66.8,30.00,North,0,0.0,0.0,92,0.00,CLR,BKN,0.00,WeatherDisplay:10.37,2013-06-17 23:49:00,
2013-06-18 01:54:00,69.1,66.7,30.01,North,0,0.0,0.0,92,0.00,CLR,BKN,0.00,WeatherDisplay:10.37,2013-06-17 23:54:00,
2013-06-18 01:59:00,68.9,66.5,30.01,North,0,0.0,0.0,92,0.00,CLR,BKN,0.00,WeatherDisplay:10.37,2013-06-17 23:59:00,
2013-06-18 02:04:00,68.9,66.5,30.01,North,0,0.0,0.0,92,0.00,CLR,BKN,0.00,WeatherDisplay:10.37,2013-06-18 00:04:00,
2013-06-18 02:09:00,68.7,66.3,30.00,North,0,0.0,0.0,92,0.00,CLR,BKN,0.00,WeatherDisplay:10.37,2013-06-18 00:09:00,
2013-06-18 02:14:00,68.5,66.1,30.01,North,0,0.0,0.0,92,0.00,CLR,BKN,0.00,WeatherDisplay:10.37,2013-06-18 00:14:00,
2013-06-18 02:19:00,68.5,66.1,30.01,North,0,0.0,0.0,92,0.00,CLR,BKN,0.00,WeatherDisplay:10.37,2013-06-18 00:19:00,
2013-06-18 02:24:00,68.4,65.9,30.01,North,0,0.0,0.0,92,0.00,CLR,BKN,0.00,WeatherDisplay:10.37,2013-06-18 00:24:00,
2013-06-18 02:29:00,68.4,65.9,30.01,North,0,1.2,0.0,92,0.00,CLR,BKN,0.00,WeatherDisplay:10.37,2013-06-18 00:29:00,
2013-06-18 02:34:00,68.4,65.9,30.01,North,0,0.0,0.0,92,0.00,CLR,BKN,0.00,WeatherDisplay:10.37,2013-06-18 00:34:00,
2013-06-18 02:39:00,68.5,66.1,30.01,North,0,0.0,0.0,92,0.00,CLR,BKN,0.00,WeatherDisplay:10.37,2013-06-18 00:39:00,
2013-06-18 02:44:00,68.5,66.4,30.01,North,0,0.0,0.0,93,0.00,CLR,BKN,0.00,WeatherDisplay:10.37,2013-06-18 00:44:00,
2013-06-18 02:49:00,68.5,66.4,30.01,North,0,0.0,0.0,93,0.00,CLR,BKN,0.00,WeatherDisplay:10.37,2013-06-18 00:49:00,
2013-06-18 02:54:00,68.4,66.3,30.00,North,0,0.0,0.0,93,0.00,CLR,BKN,0.00,WeatherDisplay:10.37,2013-06-18 00:54:00,
2013-06-18 02:59:00,68.4,66.3,30.01,North,0,0.0,0.0,93,0.00,CLR,BKN,0.00,WeatherDisplay:10.37,2013-06-18 00:59:00,
2013-06-18 03:04:00,68.2,66.1,30.01,North,0,0.0,0.0,93,0.00,CLR,BKN,0.00,WeatherDisplay:10.37,2013-06-18 01:04:00,
2013-06-18 03:09:00,68.0,65.9,30.01,North,0,0.0,0.0,93,0.00,CLR,BKN,0.00,WeatherDisplay:10.37,2013-06-18 01:09:00,
2013-06-18 03:14:00,68.0,65.9,30.00,North,0,0.0,0.0,93,0.00,CLR,BKN,0.00,WeatherDisplay:10.37,2013-06-18 01:14:00,
2013-06-18 03:19:00,67.8,66.0,30.00,North,0,0.0,0.0,94,0.00,CLR,BKN,0.00,WeatherDisplay:10.37,2013-06-18 01:19:00,
2013-06-18 03:24:00,67.6,65.9,30.01,North,0,0.0,0.0,94,0.00,CLR,BKN,0.00,WeatherDisplay:10.37,2013-06-18 01:24:00,
2013-06-18 03:29:00,67.6,65.9,30.00,North,0,0.0,0.0,94,0.00,CLR,BKN,0.00,WeatherDisplay:10.37,2013-06-18 01:29:00,
2013-06-18 03:34:00,67.5,65.7,30.00,North,0,0.0,0.0,94,0.00,CLR,BKN,0.00,WeatherDisplay:10.37,2013-06-18 01:34:00,
2013-06-18 03:39:00,67.3,65.5,30.00,North,0,0.0,0.0,94,0.00,CLR,BKN,0.00,WeatherDisplay:10.37,2013-06-18 01:39:00,
2013-06-18 03:44:00,67.1,65.3,30.00,North,0,0.0,0.0,94,0.00,CLR,BKN,0.00,WeatherDisplay:10.37,2013-06-18 01:44:00,
2013-06-18 03:49:00,66.9,65.1,30.00,NNE,22,0.0,0.0,94,0.00,CLR,BKN,0.00,WeatherDisplay:10.37,2013-06-18 01:49:00,
2013-06-18 03:54:00,66.7,65.0,30.00,North,0,0.0,0.0,94,0.00,CLR,BKN,0.00,WeatherDisplay:10.37,2013-06-18 01:54:00,
2013-06-18 03:59:00,66.7,65.0,30.00,North,0,0.0,0.0,94,0.00,CLR,BKN,0.00,WeatherDisplay:10.37,2013-06-18 01:59:00,
2013-06-18 04:04:00,66.7,65.0,30.00,North,0,0.0,0.0,94,0.00,CLR,BKN,0.00,WeatherDisplay:10.37,2013-06-18 02:04:00,
2013-06-18 04:09:00,66.6,64.8,30.00,North,0,0.0,0.0,94,0.00,CLR,BKN,0.00,WeatherDisplay:10.37,2013-06-18 02:09:00,
2013-06-18 04:14:00,66.4,64.6,30.00,North,0,0.0,0.0,94,0.00,CLR,BKN,0.00,WeatherDisplay:10.37,2013-06-18 02:14:00,
2013-06-18 04:19:00,66.4,64.6,30.00,North,0,0.0,0.0,94,0.00,CLR,BKN,0.00,WeatherDisplay:10.37,2013-06-18 02:19:00,
2013-06-18 04:24:00,66.2,64.7,30.00,North,0,0.0,0.0,95,0.00,CLR,BKN,0.00,WeatherDisplay:10.37,2013-06-18 02:24:00,
2013-06-18 04:29:00,66.2,64.7,30.00,North,0,0.0,0.0,95,0.00,CLR,BKN,0.00,WeatherDisplay:10.37,2013-06-18 02:29:00,
2013-06-18 04:34:00,66.0,64.8,30.01,North,0,0.0,0.0,96,0.00,CLR,BKN,0.00,WeatherDisplay:10.37,2013-06-18 02:34:00,
2013-06-18 04:39:00,66.0,64.8,30.01,North,0,0.0,0.0,96,0.00,CLR,BKN,0.00,WeatherDisplay:10.37,2013-06-18 02:39:00,
2013-06-18 04:44:00,66.0,64.8,30.01,North,0,0.0,0.0,96,0.00,CLR,BKN,0.00,WeatherDisplay:10.37,2013-06-18 02:44:00,
2013-06-18 04:49:00,65.8,64.7,30.01,North,0,0.0,0.0,96,0.00,CLR,BKN,0.00,WeatherDisplay:10.37,2013-06-18 02:49:00,
2013-06-18 04:54:00,65.8,64.7,30.01,North,0,0.0,0.0,96,0.00,CLR,BKN,0.00,WeatherDisplay:10.37,2013-06-18 02:54:00,
2013-06-18 04:59:00,65.8,64.7,30.01,North,0,0.0,0.0,96,0.00,CLR,BKN,0.00,WeatherDisplay:10.37,2013-06-18 02:59:00,
2013-06-18 05:04:00,65.8,64.7,30.02,NE,45,0.0,0.0,96,0.00,CLR,BKN,0.00,WeatherDisplay:10.37,2013-06-18 03:04:00,
2013-06-18 05:09:00,65.8,64.7,30.01,NE,45,0.0,0.0,96,0.00,CLR,BKN,0.00,WeatherDisplay:10.37,2013-06-18 03:09:00,
2013-06-18 05:14:00,65.8,64.7,30.01,NE,45,0.0,0.0,96,0.00,CLR,BKN,0.00,WeatherDisplay:10.37,2013-06-18 03:14:00,
2013-06-18 05:19:00,65.7,64.5,30.01,NNE,22,0.0,0.0,96,0.00,CLR,BKN,0.00,WeatherDisplay:10.37,2013-06-18 03:19:00,
2013-06-18 05:24:00,65.7,64.5,30.00,NNE,22,0.0,0.0,96,0.00,CLR,BKN,0.00,WeatherDisplay:10.37,2013-06-18 03:24:00,
2013-06-18 05:29:00,65.8,64.7,30.01,NE,45,0.0,0.0,96,0.00,CLR,BKN,0.00,WeatherDisplay:10.37,2013-06-18 03:29:00,
2013-06-18 05:34:00,65.8,64.7,30.01,NE,45,0.0,0.0,96,0.00,CLR,BKN,0.00,WeatherDisplay:10.37,2013-06-18 03:34:00,
2013-06-18 05:39:00,65.8,64.7,30.02,NE,45,0.0,0.0,96,0.00,CLR,BKN,0.00,WeatherDisplay:10.37,2013-06-18 03:39:00,
2013-06-18 05:44:00,66.0,65.1,30.01,NE,45,0.0,0.0,97,0.00,CLR,BKN,0.00,WeatherDisplay:10.37,2013-06-18 03:44:00,
2013-06-18 05:49:00,66.2,65.0,30.01,North,0,0.0,0.0,96,0.00,CLR,BKN,0.00,WeatherDisplay:10.37,2013-06-18 03:49:00,
2013-06-18 05:54:00,66.2,65.0,30.02,North,0,0.0,0.0,96,0.00,CLR,BKN,0.00,WeatherDisplay:10.37,2013-06-18 03:54:00,
2013-06-18 05:59:00,66.6,65.4,30.01,North,0,0.0,0.0,96,0.00,CLR,BKN,0.00,WeatherDisplay:10.37,2013-06-18 03:59:00,
2013-06-18 06:01:00,66.6,65.4,30.02,North,0,0.0,0.0,96,0.00,CLR,BKN,0.00,WeatherDisplay:10.37,2013-06-18 04:01:00,
2013-06-18 06:02:00,66.6,65.4,30.02,North,0,0.0,0.0,96,0.00,CLR,BKN,0.00,WeatherDisplay:10.37,2013-06-18 04:02:00,
2013-06-18 06:05:00,66.6,65.4,30.01,North,0,0.0,0.0,96,0.00,CLR,BKN,0.00,WeatherDisplay:10.37,2013-06-18 04:05:00,
2013-06-18 06:08:00,66.9,65.7,30.02,North,0,0.0,0.0,96,0.00,CLR,BKN,0.00,WeatherDisplay:10.37,2013-06-18 04:08:00,
2013-06-18 06:10:00,67.1,65.9,30.02,North,3,0.0,0.0,96,0.00,CLR,BKN,0.00,WeatherDisplay:10.37,2013-06-18 04:10:00,
2013-06-18 06:15:00,68.0,66.5,30.02,North,0,0.0,0.0,95,0.00,CLR,BKN,0.00,WeatherDisplay:10.37,2013-06-18 04:15:00,
2013-06-18 06:20:00,68.5,67.1,30.02,North,0,0.0,0.0,95,0.00,CLR,BKN,0.00,WeatherDisplay:10.37,2013-06-18 04:20:00,
2013-06-18 06:25:00,69.1,67.6,30.02,North,0,3.5,3.5,95,0.00,CLR,BKN,0.00,WeatherDisplay:10.37,2013-06-18 04:25:00,
2013-06-18 06:30:00,69.6,68.1,30.02,North,0,3.5,3.5,95,0.00,CLR,BKN,0.00,WeatherDisplay:10.37,2013-06-18 04:30:00,
2013-06-18 06:35:00,70.2,68.0,30.02,North,0,3.5,3.5,93,0.00,CLR,BKN,0.00,WeatherDisplay:10.37,2013-06-18 04:35:00,
2013-06-18 06:40:00,70.3,68.2,30.03,North,0,3.5,3.5,93,0.00,CLR,BKN,0.00,WeatherDisplay:10.37,2013-06-18 04:40:00,
2013-06-18 06:45:00,70.7,68.3,30.02,NE,45,3.1,3.1,92,0.00,CLR,BKN,0.00,WeatherDisplay:10.37,2013-06-18 04:45:00,
2013-06-18 06:50:00,71.2,68.8,30.02,North,0,4.6,4.6,92,0.00,CLR,BKN,0.00,WeatherDisplay:10.37,2013-06-18 04:50:00,
2013-06-18 06:55:00,71.6,68.5,30.02,North,0,2.3,0.0,90,0.00,CLR,BKN,0.00,WeatherDisplay:10.37,2013-06-18 04:55:00,
2013-06-18 07:00:00,72.3,69.2,30.02,North,0,3.5,3.5,90,0.00,CLR,BKN,0.00,WeatherDisplay:10.37,2013-06-18 05:00:00,
2013-06-18 07:05:00,72.7,69.6,30.03,North,0,3.5,3.5,90,0.00,CLR,BKN,0.00,WeatherDisplay:10.37,2013-06-18 05:05:00,
2013-06-18 07:10:00,73.0,69.6,30.03,North,0,3.5,3.5,89,0.00,CLR,BKN,0.00,WeatherDisplay:10.37,2013-06-18 05:10:00,
2013-06-18 07:15:00,73.4,70.0,30.03,NE,45,3.5,3.5,89,0.00,CLR,BKN,0.00,WeatherDisplay:10.37,2013-06-18 05:15:00,
2013-06-18 07:20:00,73.8,70.0,30.03,North,0,3.5,3.5,88,0.00,CLR,BKN,0.00,WeatherDisplay:10.37,2013-06-18 05:20:00,
2013-06-18 07:25:00,74.3,70.2,30.03,NE,45,4.5,4.5,87,0.00,CLR,BKN,0.00,WeatherDisplay:10.37,2013-06-18 05:25:00,
2013-06-18 07:30:00,74.7,70.2,30.03,WNW,292,3.8,3.8,86,0.00,CLR,BKN,0.00,WeatherDisplay:10.37,2013-06-18 05:30:00,
2013-06-18 07:35:00,75.0,70.5,30.02,North,0,3.8,3.8,86,0.00,CLR,BKN,0.00,WeatherDisplay:10.37,2013-06-18 05:35:00,
2013-06-18 07:40:00,75.6,70.4,30.03,North,0,3.8,3.8,84,0.00,CLR,BKN,0.00,WeatherDisplay:10.37,2013-06-18 05:40:00,
2013-06-18 07:45:00,75.9,70.4,30.02,NNW,338,3.5,3.5,83,0.00,CLR,BKN,0.00,WeatherDisplay:10.37,2013-06-18 05:45:00,
2013-06-18 07:50:00,76.3,70.7,30.03,NE,45,3.5,3.5,83,0.00,CLR,BKN,0.00,WeatherDisplay:10.37,2013-06-18 05:50:00,
2013-06-18 07:55:00,76.6,70.7,30.03,NE,45,4.6,4.6,82,0.00,CLR,BKN,0.00,WeatherDisplay:10.37,2013-06-18 05:55:00,
2013-06-18 08:00:00,76.8,70.9,30.03,NW,315,3.5,3.5,82,0.00,CLR,BKN,0.00,WeatherDisplay:10.37,2013-06-18 06:00:00,
2013-06-18 08:05:00,76.8,70.5,30.02,North,0,3.5,3.5,81,0.00,CLR,BKN,0.00,WeatherDisplay:10.37,2013-06-18 06:05:00,
2013-06-18 08:10:00,77.5,70.9,30.03,NE,45,3.8,3.8,80,0.00,CLR,BKN,0.00,WeatherDisplay:10.37,2013-06-18 06:10:00,
2013-06-18 08:15:00,77.7,71.1,30.02,North,0,5.8,5.8,80,0.00,CLR,BKN,0.00,WeatherDisplay:10.37,2013-06-18 06:15:00,
2013-06-18 08:20:00,78.3,70.8,30.03,NE,45,4.6,4.6,78,0.00,CLR,BKN,0.00,WeatherDisplay:10.37,2013-06-18 06:20:00,
2013-06-18 08:25:00,78.4,70.6,30.02,North,0,4.6,4.6,77,0.00,CLR,BKN,0.00,WeatherDisplay:10.37,2013-06-18 06:25:00,
2013-06-18 08:30:00,78.8,70.6,30.02,NNW,338,4.6,4.6,76,0.00,CLR,BKN,0.00,WeatherDisplay:10.37,2013-06-18 06:30:00,
2013-06-18 08:35:00,79.0,70.8,30.02,NE,45,4.6,4.6,76,0.00,CLR,BKN,0.00,WeatherDisplay:10.37,2013-06-18 06:35:00,
2013-06-18 08:40:00,79.5,71.3,30.02,NW,315,4.6,4.6,76,0.00,CLR,BKN,0.00,WeatherDisplay:10.37,2013-06-18 06:40:00,
2013-06-18 08:45:00,79.9,71.2,30.02,NE,45,3.5,3.5,75,0.00,CLR,BKN,0.00,WeatherDisplay:10.37,2013-06-18 06:45:00,
2013-06-18 08:50:00,80.4,71.0,30.02,NE,45,3.5,0.0,73,0.00,CLR,BKN,0.00,WeatherDisplay:10.37,2013-06-18 06:50:00,
2013-06-18 08:55:00,81.0,71.1,30.02,West,270,3.5,3.5,72,0.00,CLR,BKN,0.00,WeatherDisplay:10.37,2013-06-18 06:55:00,
2013-06-18 09:00:00,81.1,70.8,30.02,East,90,4.6,4.6,71,0.00,CLR,BKN,0.00,WeatherDisplay:10.37,2013-06-18 07:00:00,
2013-06-18 09:05:00,81.5,70.8,30.02,WNW,292,3.5,3.5,70,0.00,CLR,BKN,0.00,WeatherDisplay:10.37,2013-06-18 07:05:00,
2013-06-18 09:10:00,82.0,70.9,30.02,East,90,3.5,3.5,69,0.00,CLR,BKN,0.00,WeatherDisplay:10.37,2013-06-18 07:10:00,
2013-06-18 09:15:00,82.6,71.4,30.02,NE,45,2.3,2.3,69,0.00,CLR,BKN,0.00,WeatherDisplay:10.37,2013-06-18 07:15:00,
2013-06-18 09:20:00,82.9,71.3,30.02,North,0,3.5,3.5,68,0.00,CLR,BKN,0.00,WeatherDisplay:10.37,2013-06-18 07:20:00,
2013-06-18 09:25:00,82.9,70.9,30.02,North,0,3.5,0.0,67,0.00,CLR,BKN,0.00,WeatherDisplay:10.37,2013-06-18 07:25:00,
2013-06-18 09:30:00,83.1,71.0,30.02,North,0,3.5,3.5,67,0.00,CLR,BKN,0.00,WeatherDisplay:10.37,2013-06-18 07:30:00,
2013-06-18 09:35:00,83.3,70.3,30.02,SE,135,4.6,4.6,65,0.00,CLR,BKN,0.00,WeatherDisplay:10.37,2013-06-18 07:35:00,
2013-06-18 09:40:00,83.7,70.2,30.02,East,90,4.6,4.6,64,0.00,CLR,BKN,0.00,WeatherDisplay:10.37,2013-06-18 07:40:00,
2013-06-18 09:45:00,83.8,70.4,30.02,SW,225,4.6,4.6,64,0.00,CLR,BKN,0.00,WeatherDisplay:10.37,2013-06-18 07:45:00,
2013-06-18 09:50:00,84.4,70.4,30.02,NW,315,2.3,2.3,63,0.00,CLR,BKN,0.00,WeatherDisplay:10.37,2013-06-18 07:50:00,
2013-06-18 09:55:00,84.9,70.4,30.02,South,180,4.6,4.6,62,0.00,CLR,BKN,0.00,WeatherDisplay:10.37,2013-06-18 07:55:00,
2013-06-18 10:00:00,85.3,70.3,30.02,NE,45,3.8,3.8,61,0.00,CLR,BKN,0.00,WeatherDisplay:10.37,2013-06-18 08:00:00,
2013-06-18 10:05:00,85.3,70.3,30.02,NE,45,3.8,3.8,61,0.00,CLR,BKN,0.00,WeatherDisplay:10.37,2013-06-18 08:05:00,
2013-06-18 10:10:00,85.8,71.3,30.02,NW,315,3.5,3.5,62,0.00,CLR,BKN,0.00,WeatherDisplay:10.37,2013-06-18 08:10:00,
2013-06-18 10:15:00,86.2,71.2,30.02,East,90,3.5,3.5,61,0.00,CLR,BKN,0.00,WeatherDisplay:10.37,2013-06-18 08:15:00,
2013-06-18 10:20:00,86.7,70.7,30.02,SE,135,4.6,4.6,59,0.00,CLR,BKN,0.00,WeatherDisplay:10.37,2013-06-18 08:20:00,
2013-06-18 10:25:00,87.3,69.6,30.02,South,180,5.8,5.8,56,0.00,CLR,BKN,0.00,WeatherDisplay:10.37,2013-06-18 08:25:00,
2013-06-18 10:30:00,87.6,69.5,30.02,NE,45,4.6,4.6,55,0.00,CLR,BKN,0.00,WeatherDisplay:10.37,2013-06-18 08:30:00,
2013-06-18 10:35:00,88.0,67.0,30.01,NW,315,4.6,4.6,50,0.00,CLR,BKN,0.00,WeatherDisplay:10.37,2013-06-18 08:35:00,
2013-06-18 10:40:00,88.2,68.9,30.02,West,270,4.6,4.6,53,0.00,CLR,BKN,0.00,WeatherDisplay:10.37,2013-06-18 08:40:00,
2013-06-18 10:45:00,88.5,69.8,30.01,SW,225,3.8,3.8,54,0.00,CLR,BKN,0.00,WeatherDisplay:10.37,2013-06-18 08:45:00,
2013-06-18 10:50:00,88.9,69.0,30.01,SW,225,5.4,5.4,52,0.00,CLR,BKN,0.00,WeatherDisplay:10.37,2013-06-18 08:50:00,
2013-06-18 10:55:00,89.1,69.7,30.01,SE,135,4.6,4.6,53,0.00,CLR,BKN,0.00,WeatherDisplay:10.37,2013-06-18 08:55:00,
2013-06-18 11:00:00,89.2,68.7,30.01,WSW,248,5.8,5.8,51,0.00,CLR,BKN,0.00,WeatherDisplay:10.37,2013-06-18 09:00:00,
2013-06-18 11:05:00,89.4,68.9,30.01,NW,315,5.4,5.4,51,0.00,CLR,BKN,0.00,WeatherDisplay:10.37,2013-06-18 09:05:00,
2013-06-18 11:10:00,89.4,68.3,30.01,NW,315,3.5,3.5,50,0.00,CLR,BKN,0.00,WeatherDisplay:10.37,2013-06-18 09:10:00,
2013-06-18 11:15:00,89.6,67.9,30.01,SW,225,5.8,5.8,49,0.00,CLR,BKN,0.00,WeatherDisplay:10.37,2013-06-18 09:15:00,
2013-06-18 11:20:00,90.0,68.2,30.02,SW,225,4.6,4.6,49,0.00,CLR,BKN,0.00,WeatherDisplay:10.37,2013-06-18 09:20:00,
2013-06-18 11:25:00,90.1,67.2,30.01,SW,225,3.5,3.5,47,0.00,CLR,BKN,0.00,WeatherDisplay:10.37,2013-06-18 09:25:00,
2013-06-18 11:30:00,90.1,67.8,30.01,WSW,248,5.8,5.8,48,0.00,CLR,BKN,0.00,WeatherDisplay:10.37,2013-06-18 09:30:00,
2013-06-18 11:35:00,90.5,67.5,30.00,South,180,5.8,5.8,47,0.00,CLR,BKN,0.00,WeatherDisplay:10.37,2013-06-18 09:35:00,
2013-06-18 11:40:00,91.0,66.7,30.01,West,270,5.8,5.8,45,0.00,CLR,BKN,0.00,WeatherDisplay:10.37,2013-06-18 09:40:00,
2013-06-18 11:45:00,91.4,66.4,30.01,West,270,8.1,8.1,44,0.00,CLR,BKN,0.00,WeatherDisplay:10.37,2013-06-18 09:45:00,
2013-06-18 11:50:00,91.8,65.4,30.01,WNW,292,8.1,8.1,42,0.00,CLR,BKN,0.00,WeatherDisplay:10.37,2013-06-18 09:50:00,
2013-06-18 11:55:00,92.1,65.7,30.01,NW,315,5.8,5.8,42,0.00,CLR,BKN,0.00,WeatherDisplay:10.37,2013-06-18 09:55:00,
2013-06-18 12:00:00,92.3,65.2,30.01,SW,225,5.8,5.8,41,0.00,CLR,BKN,0.00,WeatherDisplay:10.37,2013-06-18 10:00:00,
2013-06-18 12:05:00,92.3,65.2,30.01,SW,225,4.6,4.6,41,0.00,CLR,BKN,0.00,WeatherDisplay:10.37,2013-06-18 10:05:00,
2013-06-18 12:10:00,92.8,65.7,30.00,West,270,5.8,5.8,41,0.00,CLR,BKN,0.00,WeatherDisplay:10.37,2013-06-18 10:10:00,
2013-06-18 12:15:00,93.2,66.0,30.00,SW,225,4.6,4.6,41,0.00,CLR,BKN,0.00,WeatherDisplay:10.37,2013-06-18 10:15:00,
2013-06-18 12:20:00,93.2,66.0,30.00,SSW,202,4.6,4.6,41,0.00,CLR,BKN,0.00,WeatherDisplay:10.37,2013-06-18 10:20:00,
2013-06-18 12:25:00,93.7,66.5,30.00,NW,315,6.9,6.9,41,0.00,CLR,BKN,0.00,WeatherDisplay:10.37,2013-06-18 10:25:00,
2013-06-18 12:30:00,93.2,65.3,30.00,NNW,338,6.0,6.0,40,0.00,CLR,BKN,0.00,WeatherDisplay:10.37,2013-06-18 10:30:00,
2013-06-18 12:35:00,93.2,65.3,30.00,SW,225,8.1,8.1,40,0.00,CLR,BKN,0.00,WeatherDisplay:10.37,2013-06-18 10:35:00,
2013-06-18 12:40:00,93.2,66.0,30.00,West,270,6.0,6.0,41,0.00,CLR,BKN,0.00,WeatherDisplay:10.37,2013-06-18 10:40:00,
2013-06-18 12:45:00,93.6,66.3,30.00,SW,225,6.0,6.0,41,0.00,CLR,BKN,0.00,WeatherDisplay:10.37,2013-06-18 10:45:00,
2013-06-18 12:50:00,93.6,64.9,30.00,South,180,8.1,8.1,39,0.00,CLR,BKN,0.00,WeatherDisplay:10.37,2013-06-18 10:50:00,
2013-06-18 12:55:00,93.7,66.5,30.00,SW,225,8.1,8.1,41,0.00,CLR,BKN,0.00,WeatherDisplay:10.37,2013-06-18 10:55:00,
2013-06-18 13:00:00,93.9,66.6,29.99,East,90,6.9,6.9,41,0.00,CLR,BKN,0.00,WeatherDisplay:10.37,2013-06-18 11:00:00,
2013-06-18 13:05:00,94.1,65.4,30.00,SW,225,10.7,10.7,39,0.00,CLR,BKN,0.00,WeatherDisplay:10.37,2013-06-18 11:05:00,
2013-06-18 13:10:00,94.1,66.1,30.00,SW,225,9.2,9.2,40,0.00,CLR,BKN,0.00,WeatherDisplay:10.37,2013-06-18 11:10:00,
2013-06-18 13:15:00,94.5,66.4,29.99,West,270,6.9,6.9,40,0.00,CLR,BKN,0.00,WeatherDisplay:10.37,2013-06-18 11:15:00,
2013-06-18 13:20:00,94.8,66.0,29.99,North,0,8.1,8.1,39,0.00,CLR,BKN,0.00,WeatherDisplay:10.37,2013-06-18 11:20:00,
2013-06-18 13:25:00,94.5,64.2,29.99,SW,225,9.2,9.2,37,0.00,CLR,BKN,0.00,WeatherDisplay:10.37,2013-06-18 11:25:00,
2013-06-18 13:30:00,94.6,65.1,29.99,North,0,8.1,8.1,38,0.00,CLR,BKN,0.00,WeatherDisplay:10.37,2013-06-18 11:30:00,
2013-06-18 13:35:00,94.8,63.7,29.99,South,180,9.2,9.2,36,0.00,CLR,BKN,0.00,WeatherDisplay:10.37,2013-06-18 11:35:00,
2013-06-18 13:40:00,95.0,63.9,29.99,West,270,8.1,8.1,36,0.00,CLR,BKN,0.00,WeatherDisplay:10.37,2013-06-18 11:40:00,
2013-06-18 13:45:00,95.4,63.4,29.99,SW,225,9.2,9.2,35,0.00,CLR,BKN,0.00,WeatherDisplay:10.37,2013-06-18 11:45:00,
2013-06-18 13:51:00,95.4,64.2,29.99,SE,135,6.9,6.9,36,0.00,CLR,BKN,0.00,WeatherDisplay:10.37,2013-06-18 11:51:00,
2013-06-18 13:56:00,95.5,62.7,29.99,South,180,9.2,9.2,34,0.00,CLR,BKN,0.00,WeatherDisplay:10.37,2013-06-18 11:56:00,
2013-06-18 14:01:00,95.7,62.9,29.99,South,180,9.2,9.2,34,0.00,CLR,BKN,0.00,WeatherDisplay:10.37,2013-06-18 12:01:00,
2013-06-18 14:06:00,95.7,62.9,29.99,South,180,6.9,6.9,34,0.00,CLR,BKN,0.00,WeatherDisplay:10.37,2013-06-18 12:06:00,
2013-06-18 14:11:00,95.9,63.0,29.99,West,270,5.4,5.4,34,0.00,CLR,BKN,0.00,WeatherDisplay:10.37,2013-06-18 12:11:00,
2013-06-18 14:16:00,95.7,62.9,29.99,SW,225,6.9,6.9,34,0.00,CLR,BKN,0.00,WeatherDisplay:10.37,2013-06-18 12:16:00,
2013-06-18 14:21:00,96.3,63.3,29.99,WSW,248,7.6,7.6,34,0.00,CLR,BKN,0.00,WeatherDisplay:10.37,2013-06-18 12:21:00,
2013-06-18 14:26:00,96.1,62.3,29.99,SSE,158,6.9,6.9,33,0.00,CLR,BKN,0.00,WeatherDisplay:10.37,2013-06-18 12:26:00,
2013-06-18 14:31:00,96.1,63.2,29.98,SW,225,10.4,10.4,34,0.00,CLR,BKN,0.00,WeatherDisplay:10.37,2013-06-18 12:31:00,
2013-06-18 14:36:00,96.1,63.2,29.99,SW,225,6.9,6.9,34,0.00,CLR,BKN,0.00,WeatherDisplay:10.37,2013-06-18 12:36:00,
2013-06-18 14:41:00,96.4,63.5,29.99,SW,225,8.1,8.1,34,0.00,CLR,BKN,0.00,WeatherDisplay:10.37,2013-06-18 12:41:00,
2013-06-18 14:46:00,96.4,64.3,29.98,South,180,10.4,10.4,35,0.00,CLR,BKN,0.00,WeatherDisplay:10.37,2013-06-18 12:46:00,
2013-06-18 14:51:00,96.8,61.2,29.99,West,270,8.1,8.1,31,0.00,CLR,BKN,0.00,WeatherDisplay:10.37,2013-06-18 12:51:00,
2013-06-18 14:56:00,96.8,63.0,29.99,SW,225,10.7,10.7,33,0.00,CLR,BKN,0.00,WeatherDisplay:10.37,2013-06-18 12:56:00,
2013-06-18 15:01:00,96.4,63.5,29.98,West,270,8.1,8.1,34,0.00,CLR,BKN,0.00,WeatherDisplay:10.37,2013-06-18 13:01:00,
2013-06-18 15:06:00,96.4,61.8,29.98,SW,225,8.1,8.1,32,0.00,CLR,BKN,0.00,WeatherDisplay:10.37,2013-06-18 13:06:00,
2013-06-18 15:11:00,96.4,62.6,29.98,SW,225,8.3,8.3,33,0.00,CLR,BKN,0.00,WeatherDisplay:10.37,2013-06-18 13:11:00,
2013-06-18 15:16:00,96.4,62.6,29.98,WSW,248,6.9,6.9,33,0.00,CLR,BKN,0.00,WeatherDisplay:10.37,2013-06-18 13:16:00,
2013-06-18 15:21:00,96.8,62.1,29.98,South,180,10.7,10.7,32,0.00,CLR,BKN,0.00,WeatherDisplay:10.37,2013-06-18 13:21:00,
2013-06-18 15:26:00,96.4,62.6,29.98,South,180,10.4,10.4,33,0.00,CLR,BKN,0.00,WeatherDisplay:10.37,2013-06-18 13:26:00,
2013-06-18 15:31:00,97.0,63.1,29.98,SW,225,9.2,9.2,33,0.00,CLR,BKN,0.00,WeatherDisplay:10.37,2013-06-18 13:31:00,
2013-06-18 15:36:00,97.3,62.5,29.97,South,180,8.1,8.1,32,0.00,CLR,BKN,0.00,WeatherDisplay:10.37,2013-06-18 13:36:00,
2013-06-18 15:41:00,96.8,61.2,29.98,South,180,8.1,8.1,31,0.00,CLR,BKN,0.00,WeatherDisplay:10.37,2013-06-18 13:41:00,
2013-06-18 15:46:00,97.0,62.2,29.98,SW,225,13.0,13.0,32,0.00,CLR,BKN,0.00,WeatherDisplay:10.37,2013-06-18 13:46:00,
2013-06-18 15:51:00,96.4,62.6,29.98,SE,135,10.4,10.4,33,0.00,CLR,BKN,0.00,WeatherDisplay:10.37,2013-06-18 13:51:00,
2013-06-18 15:56:00,96.8,63.8,29.97,SW,225,6.9,6.9,34,0.00,CLR,BKN,0.00,WeatherDisplay:10.37,2013-06-18 13:56:00,
2013-06-18 16:01:00,97.3,64.3,29.97,SSW,202,10.4,10.4,34,0.00,CLR,BKN,0.00,WeatherDisplay:10.37,2013-06-18 14:01:00,
2013-06-18 16:06:00,97.3,64.3,29.97,SSW,202,10.4,10.4,34,0.00,CLR,BKN,0.00,WeatherDisplay:10.37,2013-06-18 14:06:00,
2013-06-18 16:11:00,96.8,62.1,29.97,South,180,8.1,8.1,32,0.00,CLR,BKN,0.00,WeatherDisplay:10.37,2013-06-18 14:11:00,
2013-06-18 16:16:00,96.8,62.1,29.96,South,180,8.1,8.1,32,0.00,CLR,BKN,0.00,WeatherDisplay:10.37,2013-06-18 14:16:00,
2013-06-18 16:21:00,96.4,62.6,29.96,West,270,10.4,10.4,33,0.00,CLR,BKN,0.00,WeatherDisplay:10.37,2013-06-18 14:21:00,
2013-06-18 16:26:00,96.3,62.5,29.96,SSW,202,9.2,9.2,33,0.00,CLR,BKN,0.00,WeatherDisplay:10.37,2013-06-18 14:26:00,
2013-06-18 16:31:00,96.1,63.2,29.96,South,180,5.8,5.8,34,0.00,CLR,BKN,0.00,WeatherDisplay:10.37,2013-06-18 14:31:00,
2013-06-18 16:36:00,96.3,63.3,29.96,South,180,9.2,9.2,34,0.00,CLR,BKN,0.00,WeatherDisplay:10.37,2013-06-18 14:36:00,
2013-06-18 16:41:00,96.3,63.3,29.95,South,180,8.1,8.1,34,0.00,CLR,BKN,0.00,WeatherDisplay:10.37,2013-06-18 14:41:00,
2013-06-18 16:46:00,96.4,63.5,29.95,SW,225,5.4,5.4,34,0.00,CLR,BKN,0.00,WeatherDisplay:10.37,2013-06-18 14:46:00,
2013-06-18 16:51:00,96.4,63.5,29.95,NW,315,5.8,5.8,34,0.00,CLR,BKN,0.00,WeatherDisplay:10.37,2013-06-18 14:51:00,
2013-06-18 16:56:00,96.4,63.5,29.95,West,270,8.1,8.1,34,0.00,CLR,BKN,0.00,WeatherDisplay:10.37,2013-06-18 14:56:00,
2013-06-18 17:01:00,96.4,63.5,29.95,West,270,5.8,5.8,34,0.00,CLR,BKN,0.00,WeatherDisplay:10.37,2013-06-18 15:01:00,
2013-06-18 17:06:00,96.3,63.3,29.95,WSW,248,8.1,8.1,34,0.00,CLR,BKN,0.00,WeatherDisplay:10.37,2013-06-18 15:06:00,
2013-06-18 17:11:00,96.4,62.6,29.95,SW,225,3.8,3.8,33,0.00,CLR,BKN,0.00,WeatherDisplay:10.37,2013-06-18 15:11:00,
2013-06-18 17:16:00,96.3,62.5,29.95,South,180,6.9,6.9,33,0.00,CLR,BKN,0.00,WeatherDisplay:10.37,2013-06-18 15:16:00,
2013-06-18 17:21:00,96.3,62.5,29.95,SW,225,5.4,5.4,33,0.00,CLR,BKN,0.00,WeatherDisplay:10.37,2013-06-18 15:21:00,
2013-06-18 17:26:00,96.1,62.3,29.95,West,270,9.2,9.2,33,0.00,CLR,BKN,0.00,WeatherDisplay:10.37,2013-06-18 15:26:00,
2013-06-18 17:31:00,95.7,62.0,29.95,SW,225,6.9,6.9,33,0.00,CLR,BKN,0.00,WeatherDisplay:10.37,2013-06-18 15:31:00,
2013-06-18 17:36:00,95.5,62.7,29.95,NW,315,5.8,5.8,34,0.00,CLR,BKN,0.00,WeatherDisplay:10.37,2013-06-18 15:36:00,
2013-06-18 17:41:00,95.7,62.0,29.95,WNW,292,6.0,6.0,33,0.00,CLR,BKN,0.00,WeatherDisplay:10.37,2013-06-18 15:41:00,
2013-06-18 17:46:00,95.5,61.9,29.95,South,180,5.8,5.8,33,0.00,CLR,BKN,0.00,WeatherDisplay:10.37,2013-06-18 15:46:00,
2013-06-18 17:51:00,95.4,61.7,29.95,SW,225,8.1,8.1,33,0.00,CLR,BKN,0.00,WeatherDisplay:10.37,2013-06-18 15:51:00,
2013-06-18 17:56:00,95.0,61.4,29.94,SW,225,8.1,8.1,33,0.00,CLR,BKN,0.00,WeatherDisplay:10.37,2013-06-18 15:56:00,
2013-06-18 18:01:00,94.8,62.9,29.95,West,270,6.9,6.9,35,0.00,CLR,BKN,0.00,WeatherDisplay:10.37,2013-06-18 16:01:00,
2013-06-18 18:06:00,94.8,62.9,29.94,West,270,6.9,6.9,35,0.00,CLR,BKN,0.00,WeatherDisplay:10.37,2013-06-18 16:06:00,
2013-06-18 18:11:00,95.0,62.2,29.95,West,270,5.8,5.8,34,0.00,CLR,BKN,0.00,WeatherDisplay:10.37,2013-06-18 16:11:00,
2013-06-18 18:16:00,94.8,62.1,29.95,SSW,202,5.8,5.8,34,0.00,CLR,BKN,0.00,WeatherDisplay:10.37,2013-06-18 16:16:00,
2013-06-18 18:21:00,94.8,62.9,29.95,West,270,6.9,6.9,35,0.00,CLR,BKN,0.00,WeatherDisplay:10.37,2013-06-18 16:21:00,
2013-06-18 18:26:00,94.6,62.7,29.95,NW,315,6.9,6.9,35,0.00,CLR,BKN,0.00,WeatherDisplay:10.37,2013-06-18 16:26:00,
2013-06-18 18:31:00,94.5,63.4,29.95,SW,225,3.5,3.5,36,0.00,CLR,BKN,0.00,WeatherDisplay:10.37,2013-06-18 16:31:00,
2013-06-18 18:37:00,94.3,63.2,29.95,West,270,4.6,4.6,36,0.00,CLR,BKN,0.00,WeatherDisplay:10.37,2013-06-18 16:37:00,
2013-06-18 18:42:00,94.3,63.2,29.95,West,270,3.8,3.8,36,0.00,CLR,BKN,0.00,WeatherDisplay:10.37,2013-06-18 16:42:00,
2013-06-18 18:47:00,94.3,63.2,29.95,West,270,4.6,4.6,36,0.00,CLR,BKN,0.00,WeatherDisplay:10.37,2013-06-18 16:47:00,
2013-06-18 18:52:00,93.9,62.9,29.95,WSW,248,5.8,5.8,36,0.00,CLR,BKN,0.00,WeatherDisplay:10.37,2013-06-18 16:52:00,
2013-06-18 18:57:00,93.6,62.6,29.95,SW,225,6.9,6.9,36,0.00,CLR,BKN,0.00,WeatherDisplay:10.37,2013-06-18 16:57:00,
2013-06-18 19:02:00,93.4,62.4,29.95,SW,225,8.1,8.1,36,0.00,CLR,BKN,0.00,WeatherDisplay:10.37,2013-06-18 17:02:00,
2013-06-18 19:07:00,93.4,62.4,29.95,SW,225,3.5,3.5,36,0.00,CLR,BKN,0.00,WeatherDisplay:10.37,2013-06-18 17:07:00,
2013-06-18 19:12:00,93.2,62.3,29.96,NW,315,3.5,3.5,36,0.00,CLR,BKN,0.00,WeatherDisplay:10.37,2013-06-18 17:12:00,
2013-06-18 19:17:00,92.5,63.2,29.96,NW,315,3.5,3.5,38,0.00,CLR,BKN,0.00,WeatherDisplay:10.37,2013-06-18 17:17:00,
2013-06-18 19:22:00,91.9,63.4,29.96,WNW,292,3.5,3.5,39,0.00,CLR,BKN,0.00,WeatherDisplay:10.37,2013-06-18 17:22:00,
2013-06-18 19:27:00,91.0,62.6,29.96,WNW,292,3.5,3.5,39,0.00,CLR,BKN,0.00,WeatherDisplay:10.37,2013-06-18 17:27:00,
2013-06-18 19:32:00,90.5,62.2,29.96,West,270,3.5,3.5,39,0.00,CLR,BKN,0.00,WeatherDisplay:10.37,2013-06-18 17:32:00,
2013-06-18 19:37:00,90.0,62.4,29.96,NW,315,3.5,3.5,40,0.00,CLR,BKN,0.00,WeatherDisplay:10.37,2013-06-18 17:37:00,
2013-06-18 19:42:00,89.6,62.8,29.96,NW,315,3.5,3.5,41,0.00,CLR,BKN,0.00,WeatherDisplay:10.37,2013-06-18 17:42:00,
2013-06-18 19:47:00,89.1,63.0,29.96,North,0,2.3,2.3,42,0.00,CLR,BKN,0.00,WeatherDisplay:10.37,2013-06-18 17:47:00,
2013-06-18 19:52:00,88.5,63.2,29.97,NW,315,2.2,2.2,43,0.00,CLR,BKN,0.00,WeatherDisplay:10.37,2013-06-18 17:52:00,
2013-06-18 19:57:00,88.2,63.5,29.97,West,270,2.3,2.3,44,0.00,CLR,BKN,0.00,WeatherDisplay:10.37,2013-06-18 17:57:00,
2013-06-18 20:02:00,87.8,63.2,29.97,SW,225,1.6,1.6,44,0.00,CLR,BKN,0.00,WeatherDisplay:10.37,2013-06-18 18:02:00,
2013-06-18 20:07:00,87.1,63.8,29.97,North,0,1.6,0.0,46,0.00,CLR,BKN,0.00,WeatherDisplay:10.37,2013-06-18 18:07:00,
2013-06-18 20:12:00,86.7,64.1,29.97,NW,315,1.2,0.0,47,0.00,CLR,BKN,0.00,WeatherDisplay:10.37,2013-06-18 18:12:00,
2013-06-18 20:17:00,86.2,64.2,29.97,North,0,2.3,2.3,48,0.00,CLR,BKN,0.00,WeatherDisplay:10.37,2013-06-18 18:17:00,
2013-06-18 20:22:00,85.6,64.9,29.97,NW,315,2.3,2.3,50,0.00,CLR,BKN,0.00,WeatherDisplay:10.37,2013-06-18 18:22:00,
2013-06-18 20:27:00,85.1,64.9,29.98,NW,315,1.6,1.6,51,0.00,CLR,BKN,0.00,WeatherDisplay:10.37,2013-06-18 18:27:00,
2013-06-18 20:32:00,84.6,65.0,29.98,NW,315,1.2,0.0,52,0.00,CLR,BKN,0.00,WeatherDisplay:10.37,2013-06-18 18:32:00,
2013-06-18 20:37:00,84.0,65.6,29.98,NW,315,1.2,0.0,54,0.00,CLR,BKN,0.00,WeatherDisplay:10.37,2013-06-18 18:37:00,
2013-06-18 20:42:00,83.1,64.8,29.97,NW,315,0.7,0.0,54,0.00,CLR,BKN,0.00,WeatherDisplay:10.37,2013-06-18 18:42:00,
2013-06-18 20:47:00,82.6,64.8,29.98,North,0,2.3,2.3,55,0.00,CLR,BKN,0.00,WeatherDisplay:10.37,2013-06-18 18:47:00,
2013-06-18 20:52:00,81.9,65.1,29.99,NW,315,2.3,2.3,57,0.00,CLR,BKN,0.00,WeatherDisplay:10.37,2013-06-18 18:52:00,
2013-06-18 20:57:00,81.5,64.8,29.98,North,0,2.3,0.0,57,0.00,CLR,BKN,0.00,WeatherDisplay:10.37,2013-06-18 18:57:00,
2013-06-18 21:02:00,81.1,65.5,29.98,North,0,0.7,0.7,59,0.00,CLR,BKN,0.00,WeatherDisplay:10.37,2013-06-18 19:02:00,
2013-06-18 21:07:00,80.6,65.4,29.99,SE,135,1.6,1.6,60,0.00,CLR,BKN,0.00,WeatherDisplay:10.37,2013-06-18 19:07:00,
2013-06-18 21:12:00,80.2,66.0,29.98,South,180,1.6,1.6,62,0.00,CLR,BKN,0.00,WeatherDisplay:10.37,2013-06-18 19:12:00,
2013-06-18 21:17:00,79.7,66.4,29.98,South,180,1.2,0.0,64,0.00,CLR,BKN,0.00,WeatherDisplay:10.37,2013-06-18 19:17:00,
2013-06-18 21:22:00,79.3,66.5,29.99,South,180,0.0,0.0,65,0.00,CLR,BKN,0.00,WeatherDisplay:10.37,2013-06-18 19:22:00,
2013-06-18 21:27:00,79.0,66.2,29.99,South,180,0.0,0.0,65,0.00,CLR,BKN,0.00,WeatherDisplay:10.37,2013-06-18 19:27:00,
2013-06-18 21:32:00,78.6,66.7,29.98,North,0,1.6,1.6,67,0.00,CLR,BKN,0.00,WeatherDisplay:10.37,2013-06-18 19:32:00,
2013-06-18 21:37:00,78.3,66.8,29.98,North,0,1.2,0.0,68,0.00,CLR,BKN,0.00,WeatherDisplay:10.37,2013-06-18 19:37:00,
2013-06-18 21:42:00,78.1,67.5,29.98,SE,135,1.6,1.6,70,0.00,CLR,BKN,0.00,WeatherDisplay:10.37,2013-06-18 19:42:00,
2013-06-18 21:47:00,77.7,67.2,29.98,SE,135,1.2,0.0,70,0.00,CLR,BKN,0.00,WeatherDisplay:10.37,2013-06-18 19:47:00,
2013-06-18 21:52:00,77.4,67.2,29.99,North,0,2.3,2.3,71,0.00,CLR,BKN,0.00,WeatherDisplay:10.37,2013-06-18 19:52:00,
2013-06-18 21:57:00,77.2,67.5,29.99,NE,45,3.5,3.5,72,0.00,CLR,BKN,0.00,WeatherDisplay:10.37,2013-06-18 19:57:00,
2013-06-18 22:02:00,77.0,67.3,29.99,North,0,2.3,2.3,72,0.00,CLR,BKN,0.00,WeatherDisplay:10.37,2013-06-18 20:02:00,
2013-06-18 22:07:00,77.0,67.3,29.99,North,0,2.3,2.3,72,0.00,CLR,BKN,0.00,WeatherDisplay:10.37,2013-06-18 20:07:00,
2013-06-18 22:12:00,76.6,68.1,30.00,SE,135,1.6,1.6,75,0.00,CLR,BKN,0.00,WeatherDisplay:10.37,2013-06-18 20:12:00,
2013-06-18 22:17:00,76.3,67.8,30.00,SE,135,1.2,0.0,75,0.00,CLR,BKN,0.00,WeatherDisplay:10.37,2013-06-18 20:17:00,
2013-06-18 22:22:00,76.1,67.6,30.00,SE,135,0.0,0.0,75,0.00,CLR,BKN,0.00,WeatherDisplay:10.37,2013-06-18 20:22:00,
2013-06-18 22:27:00,75.9,67.4,30.00,South,180,0.0,0.0,75,0.00,CLR,BKN,0.00,WeatherDisplay:10.37,2013-06-18 20:27:00,
2013-06-18 22:32:00,75.6,67.8,30.00,East,90,1.6,1.6,77,0.00,CLR,BKN,0.00,WeatherDisplay:10.37,2013-06-18 20:32:00,
2013-06-18 22:37:00,75.4,67.7,30.00,East,90,1.6,1.6,77,0.00,CLR,BKN,0.00,WeatherDisplay:10.37,2013-06-18 20:37:00,
2013-06-18 22:42:00,75.2,67.5,30.00,NE,45,3.5,3.5,77,0.00,CLR,BKN,0.00,WeatherDisplay:10.37,2013-06-18 20:42:00,
2013-06-18 22:47:00,75.0,67.7,30.00,East,90,1.2,0.0,78,0.00,CLR,BKN,0.00,WeatherDisplay:10.37,2013-06-18 20:47:00,
2013-06-18 22:52:00,74.7,67.7,30.00,NW,315,1.6,1.6,79,0.00,CLR,BKN,0.00,WeatherDisplay:10.37,2013-06-18 20:52:00,
2013-06-18 22:57:00,74.5,67.9,30.00,North,0,2.3,2.3,80,0.00,CLR,BKN,0.00,WeatherDisplay:10.37,2013-06-18 20:57:00,
2013-06-18 23:02:00,74.5,67.9,30.00,West,270,3.5,3.5,80,0.00,CLR,BKN,0.00,WeatherDisplay:10.37,2013-06-18 21:02:00,
2013-06-18 23:07:00,74.5,67.9,29.99,NW,315,1.6,1.6,80,0.00,CLR,BKN,0.00,WeatherDisplay:10.37,2013-06-18 21:07:00,
2013-06-18 23:12:00,74.5,68.3,29.99,NW,315,3.5,3.5,81,0.00,CLR,BKN,0.00,WeatherDisplay:10.37,2013-06-18 21:12:00,
2013-06-18 23:17:00,74.3,68.1,29.99,NNW,338,3.5,3.5,81,0.00,CLR,BKN,0.00,WeatherDisplay:10.37,2013-06-18 21:17:00,
2013-06-18 23:22:00,74.3,68.4,29.99,North,0,2.3,2.3,82,0.00,CLR,BKN,0.00,WeatherDisplay:10.37,2013-06-18 21:22:00,
2013-06-18 23:27:00,74.1,68.3,29.99,North,0,2.3,2.3,82,0.00,CLR,BKN,0.00,WeatherDisplay:10.37,2013-06-18 21:27:00,
2013-06-18 23:32:00,73.9,68.1,29.99,NE,45,2.3,2.3,82,0.00,CLR,BKN,0.00,WeatherDisplay:10.37,2013-06-18 21:32:00,
2013-06-18 23:37:00,73.8,67.9,29.99,North,0,1.6,1.6,82,0.00,CLR,BKN,0.00,WeatherDisplay:10.37,2013-06-18 21:37:00,
2013-06-18 23:42:00,73.6,67.7,29.99,East,90,2.2,2.2,82,0.00,CLR,BKN,0.00,WeatherDisplay:10.37,2013-06-18 21:42:00,
2013-06-18 23:47:00,73.4,67.9,29.99,SE,135,2.3,2.3,83,0.00,CLR,BKN,0.00,WeatherDisplay:10.37,2013-06-18 21:47:00,
2013-06-18 23:52:00,73.2,67.0,29.99,East,90,1.2,0.0,81,0.00,CLR,BKN,0.00,WeatherDisplay:10.37,2013-06-18 21:52:00,
2013-06-18 23:57:00,72.9,66.7,29.98,South,180,1.6,1.6,81,0.00,CLR,BKN,0.00,WeatherDisplay:10.37,2013-06-18 21:57:00,